sensor_id;sensor_type;location;lat;lon;timestamp;pressure;altitude;pressure_sealevel;temperature;humidity
76229;BME280;65021;53.174;18.160;2023-08-07T00:01:32;99342.13;;;13.39;100.00
76229;BME280;65021;53.174;18.160;2023-08-07T00:03:59;99337.74;;;13.38;100.00
76229;BME280;65021;53.174;18.160;2023-08-07T00:06:25;99340.95;;;13.36;100.00
76229;BME280;65021;53.174;18.160;2023-08-07T00:08:52;99345.98;;;13.35;100.00
76229;BME280;65021;53.174;18.160;2023-08-07T00:11:19;99357.42;;;13.35;100.00
76229;BME280;65021;53.174;18.160;2023-08-07T00:13:45;99356.45;;;13.33;100.00
76229;BME280;65021;53.174;18.160;2023-08-07T00:16:12;99360.86;;;13.33;100.00
76229;BME280;65021;53.174;18.160;2023-08-07T00:18:38;99355.41;;;13.31;100.00
76229;BME280;65021;53.174;18.160;2023-08-07T00:21:05;99351.42;;;13.30;100.00
76229;BME280;65021;53.174;18.160;2023-08-07T00:23:31;99358.56;;;13.29;100.00
76229;BME280;65021;53.174;18.160;2023-08-07T00:25:58;99359.64;;;13.29;100.00
76229;BME280;65021;53.174;18.160;2023-08-07T00:28:25;99361.60;;;13.27;100.00
76229;BME280;65021;53.174;18.160;2023-08-07T00:30:51;99366.52;;;13.27;100.00
76229;BME280;65021;53.174;18.160;2023-08-07T00:33:18;99362.63;;;13.26;100.00
76229;BME280;65021;53.174;18.160;2023-08-07T00:35:44;99358.05;;;13.25;100.00
76229;BME280;65021;53.174;18.160;2023-08-07T00:38:11;99356.33;;;13.25;100.00
76229;BME280;65021;53.174;18.160;2023-08-07T00:40:38;99351.05;;;13.24;100.00
76229;BME280;65021;53.174;18.160;2023-08-07T00:43:06;99349.98;;;13.24;100.00
76229;BME280;65021;53.174;18.160;2023-08-07T00:45:43;99349.99;;;13.24;100.00
76229;BME280;65021;53.174;18.160;2023-08-07T00:48:11;99344.61;;;13.26;100.00
76229;BME280;65021;53.174;18.160;2023-08-07T00:50:40;99344.77;;;13.27;100.00
76229;BME280;65021;53.174;18.160;2023-08-07T00:53:08;99343.30;;;13.28;100.00
76229;BME280;65021;53.174;18.160;2023-08-07T00:55:35;99333.41;;;13.29;100.00
76229;BME280;65021;53.174;18.160;2023-08-07T00:58:02;99333.83;;;13.30;100.00
76229;BME280;65021;53.174;18.160;2023-08-07T01:00:29;99331.71;;;13.31;100.00
76229;BME280;65021;53.174;18.160;2023-08-07T01:02:57;99332.77;;;13.31;100.00
76229;BME280;65021;53.174;18.160;2023-08-07T01:05:24;99335.11;;;13.30;100.00
76229;BME280;65021;53.174;18.160;2023-08-07T01:07:53;99335.05;;;13.30;100.00
76229;BME280;65021;53.174;18.160;2023-08-07T01:10:32;99324.26;;;13.29;100.00
76229;BME280;65021;53.174;18.160;2023-08-07T01:13:27;99327.43;;;13.29;100.00
76229;BME280;65021;53.174;18.160;2023-08-07T01:15:56;99328.62;;;13.27;100.00
76229;BME280;65021;53.174;18.160;2023-08-07T01:18:26;99332.59;;;13.26;100.00
76229;BME280;65021;53.174;18.160;2023-08-07T01:20:53;99326.80;;;13.25;100.00
76229;BME280;65021;53.174;18.160;2023-08-07T01:23:19;99327.23;;;13.26;100.00
76229;BME280;65021;53.174;18.160;2023-08-07T01:25:46;99334.96;;;13.24;100.00
76229;BME280;65021;53.174;18.160;2023-08-07T01:28:46;99335.20;;;13.24;100.00
76229;BME280;65021;53.174;18.160;2023-08-07T01:31:15;99336.43;;;13.24;100.00
76229;BME280;65021;53.174;18.160;2023-08-07T01:33:59;99338.11;;;13.24;100.00
76229;BME280;65021;53.174;18.160;2023-08-07T01:36:27;99345.39;;;13.25;100.00
76229;BME280;65021;53.174;18.160;2023-08-07T01:38:57;99338.48;;;13.25;100.00
76229;BME280;65021;53.174;18.160;2023-08-07T01:41:24;99333.41;;;13.24;100.00
76229;BME280;65021;53.174;18.160;2023-08-07T01:43:52;99340.90;;;13.23;100.00
76229;BME280;65021;53.174;18.160;2023-08-07T01:46:18;99336.61;;;13.22;100.00
76229;BME280;65021;53.174;18.160;2023-08-07T01:48:45;99331.27;;;13.22;100.00
76229;BME280;65021;53.174;18.160;2023-08-07T01:51:12;99331.74;;;13.23;100.00
76229;BME280;65021;53.174;18.160;2023-08-07T01:53:39;99327.89;;;13.23;100.00
76229;BME280;65021;53.174;18.160;2023-08-07T01:56:05;99328.73;;;13.23;100.00
76229;BME280;65021;53.174;18.160;2023-08-07T01:58:32;99330.45;;;13.24;100.00
76229;BME280;65021;53.174;18.160;2023-08-07T02:00:58;99326.91;;;13.25;100.00
76229;BME280;65021;53.174;18.160;2023-08-07T02:03:25;99319.88;;;13.25;100.00
76229;BME280;65021;53.174;18.160;2023-08-07T02:05:51;99324.96;;;13.25;100.00
76229;BME280;65021;53.174;18.160;2023-08-07T02:08:18;99321.34;;;13.25;100.00
76229;BME280;65021;53.174;18.160;2023-08-07T02:10:44;99321.90;;;13.25;100.00
76229;BME280;65021;53.174;18.160;2023-08-07T02:13:11;99324.02;;;13.24;100.00
76229;BME280;65021;53.174;18.160;2023-08-07T02:15:37;99327.60;;;13.24;100.00
76229;BME280;65021;53.174;18.160;2023-08-07T02:18:04;99329.95;;;13.24;100.00
76229;BME280;65021;53.174;18.160;2023-08-07T02:20:30;99325.83;;;13.23;100.00
76229;BME280;65021;53.174;18.160;2023-08-07T02:22:57;99325.45;;;13.22;100.00
76229;BME280;65021;53.174;18.160;2023-08-07T02:25:23;99324.75;;;13.20;100.00
76229;BME280;65021;53.174;18.160;2023-08-07T02:27:50;99320.65;;;13.18;100.00
76229;BME280;65021;53.174;18.160;2023-08-07T02:30:17;99320.84;;;13.16;100.00
76229;BME280;65021;53.174;18.160;2023-08-07T02:32:43;99317.45;;;13.14;100.00
76229;BME280;65021;53.174;18.160;2023-08-07T02:35:11;99314.52;;;13.12;100.00
76229;BME280;65021;53.174;18.160;2023-08-07T02:37:37;99307.59;;;13.09;100.00
76229;BME280;65021;53.174;18.160;2023-08-07T02:40:04;99308.02;;;13.07;100.00
76229;BME280;65021;53.174;18.160;2023-08-07T02:42:31;99307.19;;;13.05;100.00
76229;BME280;65021;53.174;18.160;2023-08-07T02:44:58;99301.67;;;13.02;100.00
76229;BME280;65021;53.174;18.160;2023-08-07T02:47:24;99310.95;;;13.02;100.00
76229;BME280;65021;53.174;18.160;2023-08-07T02:49:51;99309.68;;;13.00;100.00
76229;BME280;65021;53.174;18.160;2023-08-07T02:52:17;99313.48;;;12.99;100.00
76229;BME280;65021;53.174;18.160;2023-08-07T02:54:44;99312.54;;;12.99;100.00
76229;BME280;65021;53.174;18.160;2023-08-07T02:57:10;99316.79;;;12.98;100.00
76229;BME280;65021;53.174;18.160;2023-08-07T02:59:37;99315.45;;;12.98;100.00
76229;BME280;65021;53.174;18.160;2023-08-07T03:02:04;99324.44;;;12.97;100.00
76229;BME280;65021;53.174;18.160;2023-08-07T03:04:30;99324.90;;;12.97;100.00
76229;BME280;65021;53.174;18.160;2023-08-07T03:06:57;99326.80;;;12.97;100.00
76229;BME280;65021;53.174;18.160;2023-08-07T03:09:24;99326.89;;;12.97;100.00
76229;BME280;65021;53.174;18.160;2023-08-07T03:11:50;99332.14;;;12.97;100.00
76229;BME280;65021;53.174;18.160;2023-08-07T03:14:17;99335.50;;;12.97;100.00
76229;BME280;65021;53.174;18.160;2023-08-07T03:16:45;99338.13;;;12.96;100.00
76229;BME280;65021;53.174;18.160;2023-08-07T03:19:11;99342.52;;;12.96;100.00
76229;BME280;65021;53.174;18.160;2023-08-07T03:21:38;99349.34;;;12.96;100.00
76229;BME280;65021;53.174;18.160;2023-08-07T03:24:05;99351.17;;;12.96;100.00
76229;BME280;65021;53.174;18.160;2023-08-07T03:26:32;99354.59;;;12.95;100.00
76229;BME280;65021;53.174;18.160;2023-08-07T03:28:58;99355.16;;;12.94;100.00
76229;BME280;65021;53.174;18.160;2023-08-07T03:31:25;99358.71;;;12.95;100.00
76229;BME280;65021;53.174;18.160;2023-08-07T03:33:51;99359.93;;;12.95;100.00
76229;BME280;65021;53.174;18.160;2023-08-07T03:36:18;99361.61;;;12.97;100.00
76229;BME280;65021;53.174;18.160;2023-08-07T03:38:44;99362.89;;;12.96;100.00
76229;BME280;65021;53.174;18.160;2023-08-07T03:41:11;99364.56;;;12.95;100.00
76229;BME280;65021;53.174;18.160;2023-08-07T03:43:38;99360.94;;;12.96;100.00
76229;BME280;65021;53.174;18.160;2023-08-07T03:46:04;99357.60;;;12.96;100.00
76229;BME280;65021;53.174;18.160;2023-08-07T03:48:31;99356.85;;;12.97;100.00
76229;BME280;65021;53.174;18.160;2023-08-07T03:51:04;99354.54;;;12.99;100.00
76229;BME280;65021;53.174;18.160;2023-08-07T03:53:31;99357.60;;;13.00;100.00
76229;BME280;65021;53.174;18.160;2023-08-07T03:55:58;99359.95;;;12.99;100.00
76229;BME280;65021;53.174;18.160;2023-08-07T03:58:24;99361.34;;;13.00;100.00
76229;BME280;65021;53.174;18.160;2023-08-07T04:00:51;99370.98;;;13.01;100.00
76229;BME280;65021;53.174;18.160;2023-08-07T04:03:20;99369.86;;;13.02;100.00
76229;BME280;65021;53.174;18.160;2023-08-07T04:05:46;99366.99;;;13.03;100.00
76229;BME280;65021;53.174;18.160;2023-08-07T04:08:13;99377.15;;;13.03;100.00
76229;BME280;65021;53.174;18.160;2023-08-07T04:10:39;99374.46;;;13.04;100.00
76229;BME280;65021;53.174;18.160;2023-08-07T04:13:06;99377.09;;;13.04;100.00
76229;BME280;65021;53.174;18.160;2023-08-07T04:15:33;99376.98;;;13.03;100.00
76229;BME280;65021;53.174;18.160;2023-08-07T04:17:59;99376.64;;;13.04;100.00
76229;BME280;65021;53.174;18.160;2023-08-07T04:20:26;99383.95;;;13.03;100.00
76229;BME280;65021;53.174;18.160;2023-08-07T04:22:52;99389.28;;;13.05;100.00
76229;BME280;65021;53.174;18.160;2023-08-07T04:25:19;99390.07;;;13.07;100.00
76229;BME280;65021;53.174;18.160;2023-08-07T04:27:45;99387.22;;;13.08;100.00
76229;BME280;65021;53.174;18.160;2023-08-07T04:30:12;99383.48;;;13.09;100.00
76229;BME280;65021;53.174;18.160;2023-08-07T04:32:38;99384.15;;;13.09;100.00
76229;BME280;65021;53.174;18.160;2023-08-07T04:35:06;99383.65;;;13.06;100.00
76229;BME280;65021;53.174;18.160;2023-08-07T04:37:32;99387.79;;;13.05;100.00
76229;BME280;65021;53.174;18.160;2023-08-07T04:39:59;99390.11;;;13.05;100.00
76229;BME280;65021;53.174;18.160;2023-08-07T04:42:27;99394.33;;;13.06;100.00
76229;BME280;65021;53.174;18.160;2023-08-07T04:44:53;99394.09;;;13.05;100.00
76229;BME280;65021;53.174;18.160;2023-08-07T04:47:20;99395.33;;;13.06;100.00
76229;BME280;65021;53.174;18.160;2023-08-07T04:49:47;99398.71;;;13.07;100.00
76229;BME280;65021;53.174;18.160;2023-08-07T04:52:13;99400.97;;;13.05;100.00
76229;BME280;65021;53.174;18.160;2023-08-07T04:54:40;99401.46;;;13.04;100.00
76229;BME280;65021;53.174;18.160;2023-08-07T04:57:06;99404.36;;;13.04;100.00
76229;BME280;65021;53.174;18.160;2023-08-07T04:59:33;99407.42;;;13.08;100.00
76229;BME280;65021;53.174;18.160;2023-08-07T05:02:02;99412.02;;;13.11;100.00
76229;BME280;65021;53.174;18.160;2023-08-07T05:04:28;99413.11;;;13.13;100.00
76229;BME280;65021;53.174;18.160;2023-08-07T05:06:55;99417.36;;;13.12;100.00
76229;BME280;65021;53.174;18.160;2023-08-07T05:09:21;99424.58;;;13.12;100.00
76229;BME280;65021;53.174;18.160;2023-08-07T05:11:48;99431.94;;;13.11;100.00
76229;BME280;65021;53.174;18.160;2023-08-07T05:14:15;99436.36;;;13.10;100.00
76229;BME280;65021;53.174;18.160;2023-08-07T05:16:41;99435.14;;;13.08;100.00
76229;BME280;65021;53.174;18.160;2023-08-07T05:19:08;99433.36;;;13.08;100.00
76229;BME280;65021;53.174;18.160;2023-08-07T05:21:35;99434.52;;;13.08;100.00
76229;BME280;65021;53.174;18.160;2023-08-07T05:24:02;99432.34;;;13.10;100.00
76229;BME280;65021;53.174;18.160;2023-08-07T05:26:29;99437.36;;;13.11;100.00
76229;BME280;65021;53.174;18.160;2023-08-07T05:28:56;99444.06;;;13.10;100.00
76229;BME280;65021;53.174;18.160;2023-08-07T05:31:26;99450.39;;;13.07;100.00
76229;BME280;65021;53.174;18.160;2023-08-07T05:33:52;99448.33;;;13.06;100.00
76229;BME280;65021;53.174;18.160;2023-08-07T05:36:19;99453.30;;;13.06;100.00
76229;BME280;65021;53.174;18.160;2023-08-07T05:38:45;99455.13;;;13.08;100.00
76229;BME280;65021;53.174;18.160;2023-08-07T05:41:12;99454.13;;;13.14;100.00
76229;BME280;65021;53.174;18.160;2023-08-07T05:43:38;99453.66;;;13.20;100.00
76229;BME280;65021;53.174;18.160;2023-08-07T05:46:05;99456.66;;;13.31;100.00
76229;BME280;65021;53.174;18.160;2023-08-07T05:48:31;99460.77;;;13.38;100.00
76229;BME280;65021;53.174;18.160;2023-08-07T05:50:58;99461.14;;;13.44;100.00
76229;BME280;65021;53.174;18.160;2023-08-07T05:53:25;99466.68;;;13.48;100.00
76229;BME280;65021;53.174;18.160;2023-08-07T05:55:51;99464.33;;;13.58;100.00
76229;BME280;65021;53.174;18.160;2023-08-07T05:58:18;99463.52;;;13.64;100.00
76229;BME280;65021;53.174;18.160;2023-08-07T06:00:45;99474.14;;;13.68;100.00
76229;BME280;65021;53.174;18.160;2023-08-07T06:03:12;99472.45;;;13.74;100.00
76229;BME280;65021;53.174;18.160;2023-08-07T06:05:39;99478.73;;;13.78;100.00
76229;BME280;65021;53.174;18.160;2023-08-07T06:08:06;99479.59;;;13.75;100.00
76229;BME280;65021;53.174;18.160;2023-08-07T06:10:33;99478.16;;;13.73;100.00
76229;BME280;65021;53.174;18.160;2023-08-07T06:12:59;99479.19;;;13.71;100.00
76229;BME280;65021;53.174;18.160;2023-08-07T06:15:26;99478.20;;;13.70;100.00
76229;BME280;65021;53.174;18.160;2023-08-07T06:17:53;99478.86;;;13.70;100.00
76229;BME280;65021;53.174;18.160;2023-08-07T06:20:20;99478.10;;;13.73;100.00
76229;BME280;65021;53.174;18.160;2023-08-07T06:22:46;99482.84;;;13.77;100.00
76229;BME280;65021;53.174;18.160;2023-08-07T06:25:13;99486.36;;;13.83;100.00
76229;BME280;65021;53.174;18.160;2023-08-07T06:27:40;99479.98;;;13.85;100.00
76229;BME280;65021;53.174;18.160;2023-08-07T06:30:07;99480.33;;;13.92;100.00
76229;BME280;65021;53.174;18.160;2023-08-07T06:32:33;99482.16;;;14.05;100.00
76229;BME280;65021;53.174;18.160;2023-08-07T06:35:00;99479.57;;;14.18;100.00
76229;BME280;65021;53.174;18.160;2023-08-07T06:37:27;99483.89;;;14.30;100.00
76229;BME280;65021;53.174;18.160;2023-08-07T06:39:53;99484.14;;;14.40;100.00
76229;BME280;65021;53.174;18.160;2023-08-07T06:42:20;99484.11;;;14.47;100.00
76229;BME280;65021;53.174;18.160;2023-08-07T06:44:47;99493.36;;;14.48;100.00
76229;BME280;65021;53.174;18.160;2023-08-07T06:47:14;99493.15;;;14.47;100.00
76229;BME280;65021;53.174;18.160;2023-08-07T06:49:40;99496.91;;;14.47;100.00
76229;BME280;65021;53.174;18.160;2023-08-07T06:52:07;99497.26;;;14.46;100.00
76229;BME280;65021;53.174;18.160;2023-08-07T06:54:34;99496.78;;;14.47;100.00
76229;BME280;65021;53.174;18.160;2023-08-07T06:57:00;99498.59;;;14.53;100.00
76229;BME280;65021;53.174;18.160;2023-08-07T06:59:27;99494.96;;;14.67;100.00
76229;BME280;65021;53.174;18.160;2023-08-07T07:01:54;99500.02;;;14.83;100.00
76229;BME280;65021;53.174;18.160;2023-08-07T07:04:20;99500.95;;;14.98;100.00
76229;BME280;65021;53.174;18.160;2023-08-07T07:06:47;99505.73;;;15.12;100.00
76229;BME280;65021;53.174;18.160;2023-08-07T07:09:13;99502.48;;;15.24;100.00
76229;BME280;65021;53.174;18.160;2023-08-07T07:11:43;99511.02;;;15.29;100.00
76229;BME280;65021;53.174;18.160;2023-08-07T07:14:10;99511.19;;;15.32;100.00
76229;BME280;65021;53.174;18.160;2023-08-07T07:16:40;99516.38;;;15.33;100.00
76229;BME280;65021;53.174;18.160;2023-08-07T07:19:08;99521.77;;;15.33;100.00
76229;BME280;65021;53.174;18.160;2023-08-07T07:21:35;99527.84;;;15.37;100.00
76229;BME280;65021;53.174;18.160;2023-08-07T07:24:02;99526.70;;;15.41;100.00
76229;BME280;65021;53.174;18.160;2023-08-07T07:26:29;99531.94;;;15.39;100.00
76229;BME280;65021;53.174;18.160;2023-08-07T07:28:56;99533.12;;;15.39;100.00
76229;BME280;65021;53.174;18.160;2023-08-07T07:31:23;99536.29;;;15.37;100.00
76229;BME280;65021;53.174;18.160;2023-08-07T07:33:49;99537.56;;;15.41;100.00
76229;BME280;65021;53.174;18.160;2023-08-07T07:36:17;99535.36;;;15.39;100.00
76229;BME280;65021;53.174;18.160;2023-08-07T07:38:47;99535.64;;;15.39;100.00
76229;BME280;65021;53.174;18.160;2023-08-07T07:41:14;99543.82;;;15.42;100.00
76229;BME280;65021;53.174;18.160;2023-08-07T07:43:43;99549.53;;;15.53;100.00
76229;BME280;65021;53.174;18.160;2023-08-07T07:46:10;99545.53;;;15.51;100.00
76229;BME280;65021;53.174;18.160;2023-08-07T07:48:37;99554.63;;;15.39;100.00
76229;BME280;65021;53.174;18.160;2023-08-07T07:51:04;99556.35;;;15.39;100.00
76229;BME280;65021;53.174;18.160;2023-08-07T07:53:30;99553.35;;;15.50;100.00
76229;BME280;65021;53.174;18.160;2023-08-07T07:55:57;99546.98;;;15.75;100.00
76229;BME280;65021;53.174;18.160;2023-08-07T07:58:24;99545.61;;;16.07;100.00
76229;BME280;65021;53.174;18.160;2023-08-07T08:00:52;99547.61;;;16.26;100.00
76229;BME280;65021;53.174;18.160;2023-08-07T08:03:21;99547.34;;;16.52;100.00
76229;BME280;65021;53.174;18.160;2023-08-07T08:05:51;99552.68;;;16.73;100.00
76229;BME280;65021;53.174;18.160;2023-08-07T08:08:18;99555.06;;;16.93;99.97
76229;BME280;65021;53.174;18.160;2023-08-07T08:10:45;99554.21;;;17.10;99.64
76229;BME280;65021;53.174;18.160;2023-08-07T08:13:17;99549.61;;;17.40;100.00
76229;BME280;65021;53.174;18.160;2023-08-07T08:15:45;99544.42;;;17.63;97.68
76229;BME280;65021;53.174;18.160;2023-08-07T08:18:12;99551.02;;;17.81;97.03
76229;BME280;65021;53.174;18.160;2023-08-07T08:20:38;99553.13;;;18.03;98.27
76229;BME280;65021;53.174;18.160;2023-08-07T08:23:06;99556.95;;;18.23;97.64
76229;BME280;65021;53.174;18.160;2023-08-07T08:25:33;99557.06;;;18.17;95.04
76229;BME280;65021;53.174;18.160;2023-08-07T08:27:59;99562.08;;;18.13;93.65
76229;BME280;65021;53.174;18.160;2023-08-07T08:30:28;99562.73;;;18.18;94.60
76229;BME280;65021;53.174;18.160;2023-08-07T08:32:55;99563.52;;;18.25;93.54
76229;BME280;65021;53.174;18.160;2023-08-07T08:35:22;99568.35;;;18.19;92.14
76229;BME280;65021;53.174;18.160;2023-08-07T08:37:49;99572.39;;;18.22;91.67
76229;BME280;65021;53.174;18.160;2023-08-07T08:40:15;99576.56;;;18.31;91.05
76229;BME280;65021;53.174;18.160;2023-08-07T08:42:44;99574.53;;;18.39;90.05
76229;BME280;65021;53.174;18.160;2023-08-07T08:45:15;99576.11;;;18.60;91.25
76229;BME280;65021;53.174;18.160;2023-08-07T08:47:42;99577.55;;;18.68;90.27
76229;BME280;65021;53.174;18.160;2023-08-07T08:50:12;99578.03;;;18.78;89.76
76229;BME280;65021;53.174;18.160;2023-08-07T08:52:41;99576.23;;;18.89;88.32
76229;BME280;65021;53.174;18.160;2023-08-07T08:55:09;99582.79;;;18.93;86.99
76229;BME280;65021;53.174;18.160;2023-08-07T08:57:38;99581.95;;;18.96;86.61
76229;BME280;65021;53.174;18.160;2023-08-07T09:00:07;99583.79;;;18.99;85.93
76229;BME280;65021;53.174;18.160;2023-08-07T09:02:46;99581.85;;;19.16;85.88
76229;BME280;65021;53.174;18.160;2023-08-07T09:05:17;99588.16;;;19.20;83.38
76229;BME280;65021;53.174;18.160;2023-08-07T09:07:44;99585.08;;;19.32;82.72
76229;BME280;65021;53.174;18.160;2023-08-07T09:10:16;99586.48;;;19.62;84.15
76229;BME280;65021;53.174;18.160;2023-08-07T09:13:11;99576.98;;;19.82;80.80
76229;BME280;65021;53.174;18.160;2023-08-07T09:15:41;99586.77;;;20.03;81.08
76229;BME280;65021;53.174;18.160;2023-08-07T09:18:14;99588.56;;;20.22;78.26
76229;BME280;65021;53.174;18.160;2023-08-07T09:20:41;99593.94;;;20.10;79.21
76229;BME280;65021;53.174;18.160;2023-08-07T09:23:08;99595.98;;;20.20;79.62
76229;BME280;65021;53.174;18.160;2023-08-07T09:25:35;99594.58;;;20.21;79.43
76229;BME280;65021;53.174;18.160;2023-08-07T09:28:05;99591.40;;;20.24;77.76
76229;BME280;65021;53.174;18.160;2023-08-07T09:30:37;99594.73;;;20.32;81.44
76229;BME280;65021;53.174;18.160;2023-08-07T09:33:04;99594.63;;;20.28;78.93
76229;BME280;65021;53.174;18.160;2023-08-07T09:35:32;99591.71;;;20.13;78.51
76229;BME280;65021;53.174;18.160;2023-08-07T09:38:01;99592.07;;;19.88;78.55
76229;BME280;65021;53.174;18.160;2023-08-07T09:40:29;99602.63;;;19.63;79.20
76229;BME280;65021;53.174;18.160;2023-08-07T09:42:57;99601.75;;;19.28;79.70
76229;BME280;65021;53.174;18.160;2023-08-07T09:45:26;99598.84;;;18.88;79.16
76229;BME280;65021;53.174;18.160;2023-08-07T09:48:01;99597.80;;;18.61;78.96
76229;BME280;65021;53.174;18.160;2023-08-07T09:50:28;99592.20;;;18.57;79.37
76229;BME280;65021;53.174;18.160;2023-08-07T09:52:55;99589.35;;;18.29;78.70
76229;BME280;65021;53.174;18.160;2023-08-07T09:55:23;99592.03;;;18.14;80.20
76229;BME280;65021;53.174;18.160;2023-08-07T09:57:50;99591.15;;;18.21;80.34
76229;BME280;65021;53.174;18.160;2023-08-07T10:00:18;99590.23;;;18.48;79.81
76229;BME280;65021;53.174;18.160;2023-08-07T10:02:50;99592.14;;;18.73;79.11
76229;BME280;65021;53.174;18.160;2023-08-07T10:05:18;99587.84;;;18.79;78.96
76229;BME280;65021;53.174;18.160;2023-08-07T10:07:45;99584.29;;;18.78;78.70
76229;BME280;65021;53.174;18.160;2023-08-07T10:10:15;99580.17;;;18.56;78.10
76229;BME280;65021;53.174;18.160;2023-08-07T10:12:42;99585.40;;;18.29;77.77
76229;BME280;65021;53.174;18.160;2023-08-07T10:15:12;99580.38;;;18.06;77.06
76229;BME280;65021;53.174;18.160;2023-08-07T10:17:40;99585.95;;;18.04;78.52
76229;BME280;65021;53.174;18.160;2023-08-07T10:20:08;99596.46;;;18.01;78.71
76229;BME280;65021;53.174;18.160;2023-08-07T10:22:38;99600.94;;;17.85;79.28
76229;BME280;65021;53.174;18.160;2023-08-07T10:25:07;99621.91;;;17.68;79.74
76229;BME280;65021;53.174;18.160;2023-08-07T10:27:37;99631.90;;;17.58;80.66
76229;BME280;65021;53.174;18.160;2023-08-07T10:30:07;99641.39;;;17.51;81.16
76229;BME280;65021;53.174;18.160;2023-08-07T10:32:35;99643.83;;;17.43;81.35
76229;BME280;65021;53.174;18.160;2023-08-07T10:35:03;99654.05;;;17.42;81.38
76229;BME280;65021;53.174;18.160;2023-08-07T10:37:44;99660.58;;;17.47;81.61
76229;BME280;65021;53.174;18.160;2023-08-07T10:40:12;99662.85;;;17.50;82.19
76229;BME280;65021;53.174;18.160;2023-08-07T10:45:26;99667.98;;;17.56;81.22
76229;BME280;65021;53.174;18.160;2023-08-07T10:48:11;99669.08;;;17.54;81.50
76229;BME280;65021;53.174;18.160;2023-08-07T10:53:40;99677.64;;;17.65;82.47
76229;BME280;65021;53.174;18.160;2023-08-07T10:56:16;99685.40;;;17.60;81.98
76229;BME280;65021;53.174;18.160;2023-08-07T10:58:49;99697.37;;;17.45;82.63
76229;BME280;65021;53.174;18.160;2023-08-07T11:01:34;99717.08;;;17.29;83.40
76229;BME280;65021;53.174;18.160;2023-08-07T11:04:10;99721.05;;;17.22;83.32
76229;BME280;65021;53.174;18.160;2023-08-07T11:06:39;99723.85;;;17.35;83.33
76229;BME280;65021;53.174;18.160;2023-08-07T11:09:15;99729.11;;;17.51;83.43
76229;BME280;65021;53.174;18.160;2023-08-07T11:11:46;99730.01;;;17.65;83.63
76229;BME280;65021;53.174;18.160;2023-08-07T11:14:16;99722.91;;;17.78;83.62
76229;BME280;65021;53.174;18.160;2023-08-07T11:16:45;99717.65;;;18.01;83.64
76229;BME280;65021;53.174;18.160;2023-08-07T11:19:14;99718.48;;;18.29;83.67
76229;BME280;65021;53.174;18.160;2023-08-07T11:21:43;99714.66;;;18.54;83.05
76229;BME280;65021;53.174;18.160;2023-08-07T11:24:14;99714.34;;;18.61;82.29
76229;BME280;65021;53.174;18.160;2023-08-07T11:26:43;99722.53;;;18.66;82.86
76229;BME280;65021;53.174;18.160;2023-08-07T11:29:16;99726.06;;;18.62;81.28
76229;BME280;65021;53.174;18.160;2023-08-07T11:31:42;99730.95;;;18.59;82.17
76229;BME280;65021;53.174;18.160;2023-08-07T11:34:10;99727.02;;;18.61;80.86
76229;BME280;65021;53.174;18.160;2023-08-07T11:36:43;99728.67;;;18.79;82.79
76229;BME280;65021;53.174;18.160;2023-08-07T11:39:11;99733.48;;;19.14;82.64
76229;BME280;65021;53.174;18.160;2023-08-07T11:41:38;99732.27;;;19.43;81.85
76229;BME280;65021;53.174;18.160;2023-08-07T11:44:08;99731.33;;;19.57;80.38
76229;BME280;65021;53.174;18.160;2023-08-07T11:46:35;99726.52;;;19.68;80.95
76229;BME280;65021;53.174;18.160;2023-08-07T11:49:03;99732.14;;;19.95;82.42
76229;BME280;65021;53.174;18.160;2023-08-07T11:51:32;99732.69;;;20.21;81.64
76229;BME280;65021;53.174;18.160;2023-08-07T11:54:02;99739.96;;;20.21;80.14
76229;BME280;65021;53.174;18.160;2023-08-07T11:56:29;99732.91;;;19.96;78.82
76229;BME280;65021;53.174;18.160;2023-08-07T11:58:57;99739.16;;;19.70;79.44
76229;BME280;65021;53.174;18.160;2023-08-07T12:01:25;99737.03;;;19.52;80.25
76229;BME280;65021;53.174;18.160;2023-08-07T12:03:55;99740.08;;;19.48;80.31
76229;BME280;65021;53.174;18.160;2023-08-07T12:06:25;99733.31;;;19.62;79.47
76229;BME280;65021;53.174;18.160;2023-08-07T12:08:56;99734.23;;;19.71;77.84
76229;BME280;65021;53.174;18.160;2023-08-07T12:11:25;99735.64;;;19.84;78.67
76229;BME280;65021;53.174;18.160;2023-08-07T12:13:52;99734.20;;;20.00;77.50
76229;BME280;65021;53.174;18.160;2023-08-07T12:16:19;99729.34;;;20.10;77.25
76229;BME280;65021;53.174;18.160;2023-08-07T12:18:48;99729.23;;;20.23;77.45
76229;BME280;65021;53.174;18.160;2023-08-07T12:21:17;99724.77;;;20.31;74.16
76229;BME280;65021;53.174;18.160;2023-08-07T12:23:45;99720.61;;;20.16;70.93
76229;BME280;65021;53.174;18.160;2023-08-07T12:26:15;99716.13;;;20.10;73.38
76229;BME280;65021;53.174;18.160;2023-08-07T12:28:44;99715.55;;;20.18;73.89
76229;BME280;65021;53.174;18.160;2023-08-07T12:31:10;99717.28;;;20.39;73.29
76229;BME280;65021;53.174;18.160;2023-08-07T12:33:37;99711.59;;;20.47;72.20
76229;BME280;65021;53.174;18.160;2023-08-07T12:36:04;99707.60;;;20.57;70.32
76229;BME280;65021;53.174;18.160;2023-08-07T12:38:31;99709.58;;;20.66;69.48
76229;BME280;65021;53.174;18.160;2023-08-07T12:40:58;99714.93;;;20.74;69.62
76229;BME280;65021;53.174;18.160;2023-08-07T12:43:28;99715.56;;;20.89;69.29
76229;BME280;65021;53.174;18.160;2023-08-07T12:45:55;99703.90;;;21.09;68.37
76229;BME280;65021;53.174;18.160;2023-08-07T12:48:23;99702.21;;;21.09;66.91
76229;BME280;65021;53.174;18.160;2023-08-07T12:50:53;99695.96;;;20.99;67.15
76229;BME280;65021;53.174;18.160;2023-08-07T12:53:20;99705.98;;;20.80;65.14